sensor_id;sensor_type;location;lat;lon;timestamp;P1;durP1;ratioP1;P2;durP2;ratioP2
41229;SDS011;26964;50.428;19.218;2022-08-20T17:48:17;31.9;;;21.6;;
41229;SDS011;26964;50.428;19.218;2022-08-20T17:53:16;26.1;;;19.8;;
41229;SDS011;26964;50.428;19.218;2022-08-20T17:58:16;21.0;;;17.2;;
41229;SDS011;26964;50.428;19.218;2022-08-20T18:03:17;25.0;;;17.9;;
41229;SDS011;26964;50.428;19.218;2022-08-20T18:13:16;19.4;;;15.9;;
41229;SDS011;26964;50.428;19.218;2022-08-20T18:18:19;25.6;;;15.5;;
41229;SDS011;26964;50.428;19.218;2022-08-20T18:23:17;23.3;;;16.4;;
41229;SDS011;26964;50.428;19.218;2022-08-20T18:28:17;23.7;;;16.2;;
41229;SDS011;26964;50.428;19.218;2022-08-20T18:33:23;21.4;;;16.0;;
41229;SDS011;26964;50.428;19.218;2022-08-20T18:43:24;21.9;;;16.2;;
41229;SDS011;26964;50.428;19.218;2022-08-20T18:53:16;23.0;;;18.9;;
41229;SDS011;26964;50.428;19.218;2022-08-20T19:01:43;32.9;;;21.7;;
41229;SDS011;26964;50.428;19.218;2022-08-20T19:06:42;26.3;;;18.5;;
41229;SDS011;26964;50.428;19.218;2022-08-20T19:16:42;37.7;;;27.9;;
41229;SDS011;26964;50.428;19.218;2022-08-20T19:21:41;38.0;;;27.7;;
41229;SDS011;26964;50.428;19.218;2022-08-20T19:26:42;37.0;;;27.3;;
41229;SDS011;26964;50.428;19.218;2022-08-20T19:31:40;40.0;;;26.6;;
41229;SDS011;26964;50.428;19.218;2022-08-20T19:36:41;48.8;;;27.9;;
41229;SDS011;26964;50.428;19.218;2022-08-20T19:41:42;35.2;;;26.9;;
41229;SDS011;26964;50.428;19.218;2022-08-20T19:46:42;36.2;;;25.8;;
41229;SDS011;26964;50.428;19.218;2022-08-20T19:51:42;35.7;;;24.9;;
41229;SDS011;26964;50.428;19.218;2022-08-20T19:56:40;37.7;;;26.1;;
41229;SDS011;26964;50.428;19.218;2022-08-20T20:01:40;37.1;;;25.6;;
41229;SDS011;26964;50.428;19.218;2022-08-20T20:06:42;38.4;;;26.3;;
41229;SDS011;26964;50.428;19.218;2022-08-20T20:11:44;36.9;;;24.9;;
41229;SDS011;26964;50.428;19.218;2022-08-20T20:16:41;35.0;;;23.1;;
41229;SDS011;26964;50.428;19.218;2022-08-20T20:21:41;29.5;;;20.2;;
41229;SDS011;26964;50.428;19.218;2022-08-20T20:26:40;26.6;;;19.3;;
41229;SDS011;26964;50.428;19.218;2022-08-20T20:36:41;24.6;;;18.7;;
41229;SDS011;26964;50.428;19.218;2022-08-20T20:46:40;25.9;;;18.6;;
41229;SDS011;26964;50.428;19.218;2022-08-20T20:51:41;20.4;;;17.9;;
41229;SDS011;26964;50.428;19.218;2022-08-20T20:56:41;26.7;;;19.2;;
41229;SDS011;26964;50.428;19.218;2022-08-20T21:01:42;23.4;;;18.1;;
41229;SDS011;26964;50.428;19.218;2022-08-20T21:06:40;20.7;;;17.4;;
41229;SDS011;26964;50.428;19.218;2022-08-20T21:11:41;23.3;;;17.2;;
41229;SDS011;26964;50.428;19.218;2022-08-20T21:16:40;26.5;;;18.1;;
41229;SDS011;26964;50.428;19.218;2022-08-20T21:21:41;25.5;;;19.4;;
41229;SDS011;26964;50.428;19.218;2022-08-20T21:26:40;25.3;;;16.6;;
41229;SDS011;26964;50.428;19.218;2022-08-20T21:31:42;23.2;;;17.0;;
41229;SDS011;26964;50.428;19.218;2022-08-20T21:36:40;22.1;;;18.1;;
41229;SDS011;26964;50.428;19.218;2022-08-20T21:41:41;22.7;;;16.5;;
41229;SDS011;26964;50.428;19.218;2022-08-20T21:46:40;23.5;;;18.3;;
41229;SDS011;26964;50.428;19.218;2022-08-20T21:51:40;27.7;;;19.6;;
41229;SDS011;26964;50.428;19.218;2022-08-20T21:56:40;22.4;;;18.3;;
41229;SDS011;26964;50.428;19.218;2022-08-20T22:01:40;28.6;;;21.0;;
41229;SDS011;26964;50.428;19.218;2022-08-20T22:06:40;23.9;;;19.4;;
41229;SDS011;26964;50.428;19.218;2022-08-20T22:11:40;26.7;;;20.2;;
41229;SDS011;26964;50.428;19.218;2022-08-20T22:16:40;26.6;;;18.7;;
41229;SDS011;26964;50.428;19.218;2022-08-20T22:21:41;28.0;;;19.9;;
41229;SDS011;26964;50.428;19.218;2022-08-20T22:26:42;23.0;;;17.8;;
41229;SDS011;26964;50.428;19.218;2022-08-20T22:31:41;20.0;;;15.6;;
41229;SDS011;26964;50.428;19.218;2022-08-20T22:36:40;22.5;;;16.5;;
41229;SDS011;26964;50.428;19.218;2022-08-20T22:41:40;20.8;;;15.2;;
41229;SDS011;26964;50.428;19.218;2022-08-20T22:46:40;21.0;;;15.8;;
41229;SDS011;26964;50.428;19.218;2022-08-20T22:51:40;22.7;;;16.1;;
41229;SDS011;26964;50.428;19.218;2022-08-20T22:56:40;22.4;;;17.3;;
41229;SDS011;26964;50.428;19.218;2022-08-20T23:01:40;25.6;;;17.7;;
41229;SDS011;26964;50.428;19.218;2022-08-20T23:06:40;30.5;;;19.6;;
41229;SDS011;26964;50.428;19.218;2022-08-20T23:11:40;24.3;;;17.7;;
41229;SDS011;26964;50.428;19.218;2022-08-20T23:16:41;24.5;;;17.8;;
41229;SDS011;26964;50.428;19.218;2022-08-20T23:21:40;23.8;;;19.2;;
41229;SDS011;26964;50.428;19.218;2022-08-20T23:26:40;23.3;;;17.9;;
41229;SDS011;26964;50.428;19.218;2022-08-20T23:31:40;23.8;;;18.1;;
41229;SDS011;26964;50.428;19.218;2022-08-20T23:36:40;23.3;;;18.6;;
41229;SDS011;26964;50.428;19.218;2022-08-20T23:41:40;35.7;;;21.1;;
41229;SDS011;26964;50.428;19.218;2022-08-20T23:46:40;27.4;;;20.3;;
41229;SDS011;26964;50.428;19.218;2022-08-20T23:51:40;25.2;;;18.1;;
41229;SDS011;26964;50.428;19.218;2022-08-20T23:56:40;24.8;;;18.5;;
